createdAt,value
2022-11-03T00:03:34.420Z,9.07
2022-11-03T00:08:41.049Z,8.98
2022-11-03T00:13:43.646Z,8.92
2022-11-03T00:18:45.163Z,8.81
2022-11-03T00:23:46.953Z,8.91
2022-11-03T00:28:50.289Z,8.90
2022-11-03T00:33:52.092Z,8.66
2022-11-03T00:38:53.726Z,8.76
2022-11-03T00:43:55.477Z,8.78
2022-11-03T00:48:57.040Z,8.73
2022-11-03T00:54:00.595Z,8.73
2022-11-03T00:59:02.699Z,8.59
2022-11-03T01:04:23.199Z,8.73
2022-11-03T01:09:30.649Z,8.35
2022-11-03T01:14:33.460Z,8.46
2022-11-03T01:19:35.130Z,8.58
2022-11-03T01:24:36.718Z,8.57
2022-11-03T01:29:38.267Z,8.08
2022-11-03T01:34:40.059Z,8.04
2022-11-03T01:39:41.547Z,8.30
2022-11-03T01:44:49.025Z,8.29
2022-11-03T01:49:53.159Z,8.38
2022-11-03T01:55:01.103Z,8.36
2022-11-03T02:00:04.991Z,8.28
2022-11-03T02:05:15.667Z,8.48
2022-11-03T02:10:17.747Z,8.43
2022-11-03T02:15:21.603Z,8.08
2022-11-03T02:20:25.699Z,7.84
2022-11-03T02:25:49.914Z,7.84
2022-11-03T02:30:57.522Z,8.24
2022-11-03T02:36:07.068Z,7.73
2022-11-03T02:41:09.420Z,8.06
2022-11-03T02:46:11.876Z,8.15
2022-11-03T02:51:13.400Z,8.15
2022-11-03T02:56:18.257Z,8.14
2022-11-03T03:01:32.542Z,8.01
2022-11-03T03:06:40.490Z,7.96
2022-11-03T03:11:43.071Z,7.96
2022-11-03T03:16:52.299Z,7.83
2022-11-03T03:21:54.729Z,7.86
2022-11-03T03:26:59.019Z,7.80
2022-11-03T03:32:03.870Z,7.70
2022-11-03T03:37:06.092Z,7.75
2022-11-03T03:42:10.040Z,7.69
2022-11-03T03:47:32.355Z,7.81
2022-11-03T03:52:34.804Z,7.88
2022-11-03T03:57:36.292Z,7.96
2022-11-03T04:02:37.856Z,7.85
2022-11-03T04:07:48.315Z,7.79
2022-11-03T04:13:08.893Z,7.81
2022-11-03T04:18:29.001Z,7.47
2022-11-03T04:23:30.497Z,7.49
2022-11-03T04:28:32.060Z,7.65
2022-11-03T04:33:33.626Z,7.67
2022-11-03T04:38:35.180Z,7.33
2022-11-03T04:43:37.910Z,7.28
2022-11-03T04:48:39.566Z,7.50
2022-11-03T04:53:51.986Z,7.22
2022-11-03T04:58:53.923Z,7.31
2022-11-03T05:03:55.584Z,7.10
2022-11-03T05:09:07.910Z,7.26
2022-11-03T05:14:21.300Z,7.12
2022-11-03T05:19:26.021Z,6.97
2022-11-03T05:24:27.781Z,6.85
2022-11-03T05:29:37.175Z,6.70
2022-11-03T05:34:42.590Z,6.76
2022-11-03T05:39:46.510Z,7.19
2022-11-03T05:44:48.646Z,7.37
2022-11-03T05:49:53.040Z,7.39
2022-11-03T05:54:56.168Z,7.43
2022-11-03T05:59:57.695Z,7.37
2022-11-03T06:04:59.373Z,7.44
2022-11-03T06:10:00.900Z,7.48
2022-11-03T06:15:09.067Z,7.42
2022-11-03T06:20:16.685Z,7.26
2022-11-03T06:25:26.882Z,7.54
2022-11-03T06:30:32.771Z,7.26
2022-11-03T06:35:34.973Z,7.35
2022-11-03T06:40:37.147Z,7.25
2022-11-03T06:45:38.743Z,7.09
2022-11-03T06:50:44.739Z,7.17
2022-11-03T06:55:47.181Z,7.57
2022-11-03T07:00:51.243Z,7.70
2022-11-03T07:05:58.198Z,7.63
2022-11-03T07:11:20.366Z,7.82
2022-11-03T07:16:35.480Z,8.07
2022-11-03T07:21:41.138Z,8.28
2022-11-03T07:26:42.656Z,8.45
2022-11-03T07:31:44.263Z,8.60
2022-11-03T07:36:46.246Z,8.72
2022-11-03T07:41:50.892Z,8.89
2022-11-03T07:46:52.465Z,9.08
2022-11-03T07:51:55.585Z,9.21
2022-11-03T07:57:03.576Z,9.28
2022-11-03T08:02:34.737Z,9.43
2022-11-03T08:07:36.291Z,9.55
2022-11-03T08:12:37.820Z,9.61
2022-11-03T08:17:39.352Z,9.72
2022-11-03T08:22:46.104Z,9.83
2022-11-03T08:27:51.488Z,9.94
2022-11-03T08:32:52.976Z,10.04
2022-11-03T08:37:55.535Z,10.11
2022-11-03T08:42:57.129Z,10.18
2022-11-03T08:47:58.633Z,10.22
2022-11-03T08:53:00.206Z,10.24
2022-11-03T08:58:01.684Z,10.34
2022-11-03T09:03:03.188Z,10.41
2022-11-03T09:13:26.382Z,10.68
2022-11-03T09:18:27.898Z,10.69
2022-11-03T09:23:29.389Z,10.75
2022-11-03T09:28:30.863Z,10.86
2022-11-03T09:33:32.411Z,10.96
2022-11-03T09:38:33.915Z,10.98
2022-11-03T09:43:38.158Z,11.03
2022-11-03T09:48:39.881Z,11.13
2022-11-03T09:53:41.466Z,11.18
2022-11-03T09:58:42.990Z,11.25
2022-11-03T10:03:44.604Z,11.40
2022-11-03T10:08:46.375Z,11.37
2022-11-03T10:13:52.826Z,11.50
2022-11-03T10:18:54.380Z,11.66
2022-11-03T10:23:55.871Z,11.70
2022-11-03T10:29:06.519Z,11.88
2022-11-03T10:34:39.183Z,11.92
2022-11-03T10:39:40.706Z,12.08
2022-11-03T10:44:42.237Z,12.16
2022-11-03T10:49:44.066Z,12.19
2022-11-03T10:54:45.653Z,12.26
2022-11-03T10:59:49.213Z,12.39
2022-11-03T11:04:56.584Z,12.45
2022-11-03T11:10:25.378Z,12.59
2022-11-03T11:15:35.976Z,12.69
2022-11-03T11:20:39.550Z,12.77
2022-11-03T11:26:09.733Z,12.82
2022-11-03T11:32:07.800Z,12.83
2022-11-03T11:37:18.332Z,12.90
2022-11-03T11:42:21.092Z,12.94
2022-11-03T11:47:24.379Z,12.95
2022-11-03T11:52:26.572Z,13.03
2022-11-03T11:57:30.526Z,13.00
2022-11-03T12:02:32.011Z,13.10
2022-11-03T12:07:34.837Z,13.12
2022-11-03T12:12:36.648Z,13.15
2022-11-03T12:17:38.135Z,13.23
2022-11-03T12:22:41.504Z,13.21
2022-11-03T12:27:43.437Z,13.25
2022-11-03T12:32:45.910Z,13.26
2022-11-03T12:37:47.519Z,13.30
2022-11-03T12:42:49.031Z,13.28
2022-11-03T12:47:50.516Z,13.36
2022-11-03T12:52:52.015Z,13.42
2022-11-03T12:57:53.525Z,13.40
2022-11-03T13:02:55.187Z,13.36
2022-11-03T13:07:56.719Z,13.35
2022-11-03T13:12:58.251Z,13.33
2022-11-03T13:18:12.857Z,13.29
2022-11-03T13:23:17.408Z,13.34
2022-11-03T13:28:21.851Z,13.34
2022-11-03T13:33:23.404Z,13.33
2022-11-03T13:38:24.955Z,13.34
2022-11-03T13:43:26.481Z,13.28
2022-11-03T13:59:27.529Z,13.22
2022-11-03T14:04:45.312Z,13.22
2022-11-03T14:09:47.025Z,13.22
2022-11-03T14:14:48.538Z,13.16
2022-11-03T14:19:52.833Z,13.14
2022-11-03T14:24:55.027Z,13.14
2022-11-03T14:29:56.520Z,13.12
2022-11-03T14:34:58.238Z,13.07
2022-11-03T14:39:59.996Z,13.05
2022-11-03T14:45:01.576Z,13.01
2022-11-03T14:50:03.457Z,12.97
2022-11-03T14:55:05.541Z,12.95
2022-11-03T15:00:07.861Z,12.88
2022-11-03T15:05:29.365Z,12.86
2022-11-03T15:10:30.909Z,12.84
2022-11-03T15:15:32.497Z,12.77
2022-11-03T15:20:36.773Z,12.79
2022-11-03T15:25:38.287Z,12.74
2022-11-03T15:30:39.904Z,12.77
2022-11-03T15:35:41.685Z,12.76
2022-11-03T15:40:43.206Z,12.75
2022-11-03T15:45:44.688Z,12.76
2022-11-03T15:50:46.185Z,12.70
2022-11-03T15:55:47.720Z,12.73
2022-11-03T16:00:49.283Z,12.67
2022-11-03T16:05:50.869Z,12.69
2022-11-03T16:10:57.635Z,12.66
2022-11-03T16:15:59.847Z,12.63
2022-11-03T16:21:01.374Z,12.57
2022-11-03T16:26:05.190Z,12.59
2022-11-03T16:31:06.687Z,12.53
2022-11-03T16:36:08.235Z,12.54
2022-11-03T16:41:09.717Z,12.56
2022-11-03T16:46:11.204Z,12.59
2022-11-03T16:51:12.702Z,12.57
2022-11-03T16:56:14.193Z,12.56
2022-11-03T17:01:15.749Z,12.47
2022-11-03T17:06:17.332Z,12.56
2022-11-03T17:11:35.721Z,12.52
2022-11-03T17:16:37.525Z,12.52
2022-11-03T17:21:39.059Z,12.53
2022-11-03T17:26:53.999Z,12.50
2022-11-03T17:31:55.728Z,12.52
2022-11-03T17:36:57.900Z,12.50
2022-11-03T17:42:16.035Z,12.54
2022-11-03T17:47:18.879Z,12.50
2022-11-03T17:52:29.401Z,12.50
2022-11-03T17:57:31.127Z,12.55
2022-11-03T18:02:40.602Z,12.56
2022-11-03T18:07:42.807Z,12.55
2022-11-03T18:13:05.450Z,12.56
2022-11-03T18:18:13.434Z,12.50
2022-11-03T18:23:18.342Z,12.53
2022-11-03T18:28:20.084Z,12.51
2022-11-03T18:33:33.151Z,12.52
2022-11-03T18:38:36.299Z,12.54
2022-11-03T18:43:37.918Z,12.56
2022-11-03T18:48:39.459Z,12.55
2022-11-03T18:53:41.276Z,12.60
2022-11-03T18:58:42.784Z,12.62
2022-11-03T19:03:44.266Z,12.61
2022-11-03T19:08:46.042Z,12.62
2022-11-03T19:13:47.998Z,12.64
2022-11-03T19:18:50.593Z,12.65
2022-11-03T19:23:58.018Z,12.62
2022-11-03T19:29:05.790Z,12.64
2022-11-03T19:34:08.604Z,12.65
2022-11-03T19:39:36.939Z,12.61
2022-11-03T19:44:38.671Z,12.60
2022-11-03T19:49:40.182Z,12.59
2022-11-03T19:54:43.385Z,12.58
2022-11-03T19:59:45.496Z,12.60
2022-11-03T20:04:47.415Z,12.59
2022-11-03T20:09:49.002Z,12.61
2022-11-03T20:14:50.564Z,12.57
2022-11-03T20:19:53.227Z,12.53
2022-11-03T20:24:58.377Z,12.54
2022-11-03T20:29:59.895Z,12.56
2022-11-03T20:35:01.409Z,12.53
2022-11-03T20:40:02.991Z,12.43
2022-11-03T20:45:13.650Z,12.42
2022-11-03T20:50:17.015Z,12.43
2022-11-03T20:55:25.245Z,12.42
2022-11-03T21:00:28.196Z,12.45
2022-11-03T21:05:29.737Z,12.52
2022-11-03T21:10:31.311Z,12.45
2022-11-03T21:16:10.868Z,12.29
2022-11-03T21:21:18.145Z,12.36
2022-11-03T21:26:22.190Z,12.42
2022-11-03T21:31:24.100Z,12.39
2022-11-03T21:36:25.634Z,12.37
2022-11-03T21:41:45.808Z,12.39
2022-11-03T21:46:47.375Z,12.36
2022-11-03T21:51:48.890Z,12.36
2022-11-03T21:56:50.544Z,12.39
2022-11-03T22:01:55.029Z,12.36
2022-11-03T22:06:57.974Z,12.39
2022-11-03T22:11:59.455Z,12.34
2022-11-03T22:22:30.922Z,12.36
2022-11-03T22:27:33.675Z,12.37
2022-11-03T22:32:35.661Z,12.33
2022-11-03T22:42:56.201Z,12.32
2022-11-03T22:47:57.891Z,12.38
2022-11-03T22:52:59.440Z,12.38
2022-11-03T22:58:00.933Z,12.39
2022-11-03T23:03:02.407Z,12.41
2022-11-03T23:08:04.023Z,12.37
2022-11-03T23:13:05.851Z,12.39
2022-11-03T23:18:26.199Z,12.42
2022-11-03T23:23:46.236Z,12.42
2022-11-03T23:28:47.773Z,12.37
2022-11-03T23:33:49.399Z,12.36
2022-11-03T23:38:50.964Z,12.33
2022-11-03T23:43:52.807Z,12.31
2022-11-03T23:48:54.662Z,12.34
2022-11-03T23:53:57.019Z,12.35
2022-11-03T23:58:59.010Z,12.33
